createdAt,value
2018-12-10T00:01:23.946Z,45.40
2018-12-10T00:03:49.957Z,45.40
2018-12-10T00:06:15.936Z,45.80
2018-12-10T00:08:41.926Z,45.50
2018-12-10T00:11:07.912Z,45.20
2018-12-10T00:13:33.902Z,45.40
2018-12-10T00:15:59.883Z,45.40
2018-12-10T00:18:25.862Z,45.40
2018-12-10T00:20:51.838Z,45.40
2018-12-10T00:23:17.818Z,45.30
2018-12-10T00:25:43.790Z,45.30
2018-12-10T00:28:09.797Z,45.30
2018-12-10T00:30:35.799Z,45.30
2018-12-10T00:33:01.805Z,45.30
2018-12-10T00:35:27.773Z,45.20
2018-12-10T00:37:53.748Z,45.30
2018-12-10T00:40:19.742Z,45.30
2018-12-10T00:42:45.727Z,45.30
2018-12-10T00:45:11.727Z,45.50
2018-12-10T00:47:37.722Z,45.30
2018-12-10T00:50:03.693Z,45.30
2018-12-10T00:52:29.700Z,45.30
2018-12-10T00:54:55.696Z,45.30
2018-12-10T00:57:21.688Z,45.20
2018-12-10T00:59:47.645Z,45.30
2018-12-10T01:02:13.647Z,45.30
2018-12-10T01:04:39.604Z,45.30
2018-12-10T01:07:05.595Z,45.30
2018-12-10T01:09:31.569Z,45.30
2018-12-10T01:11:57.560Z,45.30
2018-12-10T01:14:23.552Z,45.30
2018-12-10T01:16:49.546Z,45.30
2018-12-10T01:19:15.527Z,45.30
2018-12-10T01:21:41.486Z,45.20
2018-12-10T01:24:07.462Z,45.30
2018-12-10T01:26:33.416Z,45.20
2018-12-10T01:28:59.397Z,45.30
2018-12-10T01:31:25.368Z,45.30
2018-12-10T01:33:51.428Z,45.30
2018-12-10T01:36:17.398Z,45.30
2018-12-10T01:38:43.361Z,45.20
2018-12-10T01:41:09.323Z,45.20
2018-12-10T01:43:35.296Z,45.20
2018-12-10T01:46:01.274Z,45.20
2018-12-10T01:48:27.278Z,45.10
2018-12-10T01:50:53.291Z,45.10
2018-12-10T01:53:19.268Z,45.10
2018-12-10T01:55:45.250Z,45.00
2018-12-10T01:58:11.238Z,45.00
2018-12-10T02:00:37.210Z,45.00
2018-12-10T02:03:03.187Z,45.00
2018-12-10T02:05:29.154Z,45.00
2018-12-10T02:07:55.142Z,45.10
2018-12-10T02:10:21.160Z,45.10
2018-12-10T02:12:47.138Z,45.00
2018-12-10T02:15:13.117Z,44.90
2018-12-10T02:17:39.089Z,44.90
2018-12-10T02:20:05.095Z,45.00
2018-12-10T02:22:31.075Z,45.00
2018-12-10T02:24:57.054Z,45.00
2018-12-10T02:27:23.025Z,45.00
2018-12-10T02:29:49.016Z,45.00
2018-12-10T02:32:14.979Z,45.10
2018-12-10T02:34:40.939Z,45.10
2018-12-10T02:37:06.906Z,44.50
2018-12-10T02:39:32.892Z,44.50
2018-12-10T02:41:58.893Z,45.00
2018-12-10T02:44:24.888Z,44.90
2018-12-10T02:46:50.886Z,44.90
2018-12-10T02:49:16.886Z,44.90
2018-12-10T02:51:42.843Z,44.80
2018-12-10T02:54:08.859Z,44.80
2018-12-10T02:56:34.850Z,44.80
2018-12-10T02:59:00.840Z,44.80
2018-12-10T03:01:26.823Z,44.90
2018-12-10T03:03:53.169Z,44.90
2018-12-10T03:06:19.148Z,44.90
2018-12-10T03:08:45.131Z,44.80
2018-12-10T03:11:11.106Z,44.70
2018-12-10T03:13:37.091Z,44.80
2018-12-10T03:16:03.073Z,44.80
2018-12-10T03:18:29.055Z,44.80
2018-12-10T03:20:55.044Z,44.80
2018-12-10T03:23:21.023Z,44.80
2018-12-10T03:25:46.993Z,44.80
2018-12-10T03:28:12.966Z,44.70
2018-12-10T03:30:38.936Z,44.70
2018-12-10T03:33:04.893Z,44.70
2018-12-10T03:35:30.900Z,44.70
2018-12-10T03:37:56.984Z,44.70
2018-12-10T03:40:22.987Z,44.60
2018-12-10T03:42:48.959Z,44.60
2018-12-10T03:45:14.969Z,44.70
2018-12-10T03:47:40.948Z,44.60
2018-12-10T03:50:06.924Z,44.60
2018-12-10T03:52:32.879Z,44.70
2018-12-10T03:54:58.835Z,44.60
2018-12-10T03:57:24.788Z,44.70
2018-12-10T03:59:50.759Z,44.70
2018-12-10T04:02:16.751Z,44.70
2018-12-10T04:04:42.741Z,44.60
2018-12-10T04:07:08.729Z,44.60
2018-12-10T04:09:35.051Z,44.70
2018-12-10T04:12:01.059Z,44.70
2018-12-10T04:14:27.022Z,44.60
2018-12-10T04:16:52.996Z,44.60
2018-12-10T04:19:18.992Z,44.50
2018-12-10T04:21:44.956Z,44.50
2018-12-10T04:24:10.931Z,44.60
2018-12-10T04:26:36.938Z,44.50
2018-12-10T04:29:02.908Z,44.60
2018-12-10T04:31:28.906Z,44.50
2018-12-10T04:33:54.878Z,44.50
2018-12-10T04:36:20.872Z,44.50
2018-12-10T04:38:46.872Z,44.40
2018-12-10T04:41:12.832Z,44.60
2018-12-10T04:43:38.815Z,44.40
2018-12-10T04:46:04.801Z,44.40
2018-12-10T04:48:30.758Z,44.40
2018-12-10T04:50:56.739Z,44.50
2018-12-10T04:53:22.714Z,44.50
2018-12-10T04:55:48.696Z,44.40
2018-12-10T04:58:14.675Z,44.50
2018-12-10T05:00:40.663Z,44.50
2018-12-10T05:03:06.649Z,44.50
2018-12-10T05:05:32.660Z,44.80
2018-12-10T05:07:58.734Z,44.80
2018-12-10T05:10:24.856Z,44.80
2018-12-10T05:12:50.932Z,45.00
2018-12-10T05:15:16.880Z,45.10
2018-12-10T05:17:42.842Z,45.10
2018-12-10T05:20:08.793Z,44.90
2018-12-10T05:22:34.850Z,44.40
2018-12-10T05:25:00.823Z,44.30
2018-12-10T05:27:26.775Z,44.30
2018-12-10T05:29:52.757Z,44.40
2018-12-10T05:32:18.704Z,44.30
2018-12-10T05:34:44.661Z,44.40
2018-12-10T05:37:10.621Z,44.30
2018-12-10T05:39:38.564Z,44.50
2018-12-10T05:42:05.750Z,44.40
2018-12-10T05:44:31.720Z,44.50
2018-12-10T05:46:57.699Z,44.50
2018-12-10T05:49:23.703Z,44.60
2018-12-10T05:51:49.678Z,44.60
2018-12-10T05:54:15.681Z,44.70
2018-12-10T05:56:41.645Z,44.80
2018-12-10T05:59:07.692Z,44.80
2018-12-10T06:01:33.661Z,45.40
2018-12-10T06:03:59.636Z,44.90
2018-12-10T06:06:25.616Z,45.20
2018-12-10T06:08:51.621Z,45.00
2018-12-10T06:11:17.637Z,44.90
2018-12-10T06:13:43.637Z,44.90
2018-12-10T06:16:09.614Z,45.10
2018-12-10T06:18:35.590Z,45.00
2018-12-10T06:21:01.560Z,45.10
2018-12-10T06:23:27.512Z,45.10
2018-12-10T06:25:53.507Z,45.20
2018-12-10T06:28:22.537Z,45.10
2018-12-10T06:30:48.585Z,45.10
2018-12-10T06:33:14.575Z,45.10
2018-12-10T06:35:40.589Z,45.00
2018-12-10T06:38:06.588Z,45.10
2018-12-10T06:40:32.594Z,45.10
2018-12-10T06:42:58.549Z,45.10
2018-12-10T06:45:24.757Z,45.10
2018-12-10T06:47:50.748Z,45.10
2018-12-10T06:50:16.730Z,45.10
2018-12-10T06:52:42.697Z,45.10
2018-12-10T06:55:08.661Z,45.10
2018-12-10T06:57:34.616Z,45.10
2018-12-10T07:00:00.592Z,45.10
2018-12-10T07:02:26.587Z,45.00
2018-12-10T07:04:52.846Z,45.10
2018-12-10T07:07:18.959Z,45.10
2018-12-10T07:09:45.041Z,45.00
2018-12-10T07:12:11.362Z,44.90
2018-12-10T07:14:37.346Z,44.90
2018-12-10T07:17:03.504Z,44.90
2018-12-10T07:19:29.478Z,44.90
2018-12-10T07:21:55.456Z,45.50
2018-12-10T07:24:21.463Z,44.90
2018-12-10T07:26:47.432Z,44.90
2018-12-10T07:29:13.374Z,44.90
2018-12-10T07:31:39.692Z,44.90
2018-12-10T07:34:05.754Z,44.90
2018-12-10T07:36:31.825Z,45.00
2018-12-10T07:38:57.804Z,44.90
2018-12-10T07:41:23.798Z,44.90
2018-12-10T07:43:49.762Z,45.60
2018-12-10T07:46:15.749Z,44.80
2018-12-10T07:48:41.739Z,44.80
2018-12-10T07:51:07.707Z,44.90
2018-12-10T07:53:33.759Z,44.90
2018-12-10T07:55:59.874Z,44.90
2018-12-10T07:58:26.013Z,44.90
2018-12-10T08:00:52.043Z,44.90
2018-12-10T08:03:18.254Z,45.00
2018-12-10T08:05:44.228Z,45.00
2018-12-10T08:08:10.227Z,45.00
2018-12-10T08:10:36.639Z,44.90
2018-12-10T08:13:02.765Z,44.90
2018-12-10T08:15:28.868Z,44.90
2018-12-10T08:17:55.026Z,45.00
2018-12-10T08:20:21.033Z,44.90
2018-12-10T08:22:47.010Z,44.90
2018-12-10T08:25:12.977Z,44.90
2018-12-10T08:27:38.977Z,44.80
2018-12-10T08:30:04.953Z,44.80
2018-12-10T08:32:30.926Z,44.80
2018-12-10T08:34:56.911Z,44.80
2018-12-10T08:37:22.906Z,44.70
2018-12-10T08:39:48.879Z,44.70
2018-12-10T08:42:14.890Z,44.70
2018-12-10T08:44:41.009Z,44.80
2018-12-10T08:47:06.991Z,44.80
2018-12-10T08:49:33.302Z,44.70
2018-12-10T08:51:59.263Z,44.70
2018-12-10T08:54:25.226Z,44.70
2018-12-10T08:56:51.200Z,44.70
2018-12-10T08:59:17.176Z,44.70
2018-12-10T09:01:43.194Z,44.60
2018-12-10T09:04:09.178Z,44.60
2018-12-10T09:06:35.157Z,44.50
2018-12-10T09:09:01.243Z,44.60
2018-12-10T09:11:27.238Z,44.60
2018-12-10T09:13:53.222Z,44.60
2018-12-10T09:16:19.188Z,44.60
2018-12-10T09:18:45.184Z,44.60
2018-12-10T09:21:11.159Z,44.70
2018-12-10T09:23:37.146Z,44.60
2018-12-10T09:26:03.142Z,44.60
2018-12-10T09:28:29.142Z,44.60
2018-12-10T09:30:55.107Z,44.60
2018-12-10T09:33:21.193Z,44.60
2018-12-10T09:35:47.165Z,44.60
2018-12-10T09:38:13.161Z,45.30
2018-12-10T09:40:39.120Z,44.60
2018-12-10T09:43:05.118Z,44.60
2018-12-10T09:45:31.062Z,44.50
2018-12-10T09:47:57.064Z,44.60
2018-12-10T09:50:23.055Z,44.60
2018-12-10T09:52:49.042Z,44.50
2018-12-10T09:55:14.995Z,44.40
2018-12-10T09:57:40.999Z,44.40
2018-12-10T10:00:06.977Z,44.40
2018-12-10T10:02:32.943Z,44.40
2018-12-10T10:04:58.897Z,44.30
2018-12-10T10:07:28.422Z,44.40
2018-12-10T10:09:52.904Z,44.30
2018-12-10T10:12:18.872Z,44.20
2018-12-10T10:14:44.843Z,44.20
2018-12-10T10:17:10.836Z,44.20
2018-12-10T10:19:37.334Z,44.20
2018-12-10T10:22:03.340Z,44.20
2018-12-10T10:24:29.304Z,44.20
2018-12-10T10:26:55.293Z,44.20
2018-12-10T10:29:21.279Z,44.20
2018-12-10T10:31:47.242Z,44.10
2018-12-10T10:34:13.231Z,44.20
2018-12-10T10:36:39.221Z,44.20
2018-12-10T10:39:05.184Z,44.20
2018-12-10T10:41:31.637Z,44.10
2018-12-10T10:43:57.740Z,44.20
2018-12-10T10:46:23.743Z,44.10
2018-12-10T10:48:49.737Z,44.10
2018-12-10T10:51:15.726Z,44.10
2018-12-10T10:53:41.707Z,44.20
2018-12-10T10:56:07.685Z,44.20
2018-12-10T10:58:33.680Z,44.30
2018-12-10T11:01:05.873Z,44.30
2018-12-10T11:03:35.617Z,44.30
2018-12-10T11:06:01.608Z,44.30
2018-12-10T11:08:27.712Z,44.30
2018-12-10T11:10:53.800Z,44.30
2018-12-10T11:13:19.763Z,44.30
2018-12-10T11:15:45.766Z,44.60
2018-12-10T11:18:11.742Z,44.30
2018-12-10T11:20:37.779Z,44.30
2018-12-10T11:23:03.743Z,44.20
2018-12-10T11:25:29.695Z,44.20
2018-12-10T11:27:55.668Z,44.10
2018-12-10T11:30:21.684Z,44.10
2018-12-10T11:32:47.981Z,44.60
2018-12-10T11:35:14.061Z,44.10
2018-12-10T11:37:40.063Z,44.00
2018-12-10T11:40:06.095Z,44.00
2018-12-10T11:42:32.083Z,44.00
2018-12-10T11:44:58.075Z,44.00
2018-12-10T11:47:24.077Z,44.00
2018-12-10T11:49:50.054Z,44.00
2018-12-10T11:52:16.017Z,43.90
2018-12-10T11:54:41.999Z,43.90
2018-12-10T11:57:08.023Z,43.90
2018-12-10T11:59:34.021Z,43.90
2018-12-10T12:02:00.032Z,44.20
2018-12-10T12:04:26.015Z,44.00
2018-12-10T12:06:52.007Z,44.00
2018-12-10T12:09:17.979Z,44.00
2018-12-10T12:11:44.003Z,44.00
2018-12-10T12:14:09.988Z,44.00
2018-12-10T12:16:35.984Z,44.00
2018-12-10T12:19:01.957Z,44.20
2018-12-10T12:21:27.900Z,44.00
2018-12-10T12:23:53.884Z,44.00
2018-12-10T12:26:19.867Z,44.00
2018-12-10T12:28:45.878Z,43.90
2018-12-10T12:31:11.867Z,43.90
2018-12-10T12:33:38.043Z,44.00
2018-12-10T12:36:04.208Z,44.00
2018-12-10T12:38:30.239Z,43.70
2018-12-10T12:40:56.244Z,43.60
2018-12-10T12:43:22.221Z,43.40
2018-12-10T12:45:48.225Z,43.10
2018-12-10T12:48:14.237Z,42.90
2018-12-10T12:50:40.323Z,43.10
2018-12-10T12:53:06.313Z,42.90
2018-12-10T12:55:32.378Z,41.70
2018-12-10T12:57:58.605Z,41.60
2018-12-10T13:00:27.214Z,41.40
2018-12-10T13:02:52.604Z,41.30
2018-12-10T13:05:18.624Z,41.00
2018-12-10T13:07:44.700Z,41.50
2018-12-10T13:10:10.810Z,40.80
2018-12-10T13:12:36.996Z,40.80
2018-12-10T13:15:03.022Z,40.60
2018-12-10T13:17:29.031Z,40.60
2018-12-10T13:19:55.033Z,40.50
2018-12-10T13:22:21.133Z,40.40
2018-12-10T13:24:47.127Z,40.40
2018-12-10T13:27:13.092Z,40.30
2018-12-10T13:29:39.310Z,40.30
2018-12-10T13:32:05.309Z,40.20
2018-12-10T13:34:31.316Z,40.00
2018-12-10T13:36:57.310Z,40.10
2018-12-10T13:39:23.285Z,40.10
2018-12-10T13:41:49.298Z,40.00
2018-12-10T13:44:15.297Z,40.20
2018-12-10T13:46:41.293Z,40.40
2018-12-10T13:49:07.305Z,40.40
2018-12-10T13:51:33.256Z,40.40
2018-12-10T13:53:59.583Z,40.20
2018-12-10T13:56:25.648Z,40.30
2018-12-10T13:58:51.654Z,40.50
2018-12-10T14:01:17.645Z,40.40
2018-12-10T14:03:44.401Z,41.30
2018-12-10T14:06:10.472Z,40.70
2018-12-10T14:08:36.464Z,40.80
2018-12-10T14:11:02.429Z,40.60
2018-12-10T14:13:28.419Z,40.20
2018-12-10T14:15:54.370Z,40.10
2018-12-10T14:18:20.380Z,39.90
2018-12-10T14:20:46.379Z,39.70
2018-12-10T14:23:12.398Z,39.70
2018-12-10T14:25:38.388Z,39.70
2018-12-10T14:28:04.467Z,39.70
2018-12-10T14:30:30.459Z,40.40
2018-12-10T14:32:56.415Z,39.70
2018-12-10T14:35:22.405Z,39.70
2018-12-10T14:37:48.400Z,39.70
2018-12-10T14:40:14.372Z,39.70
2018-12-10T14:42:40.366Z,39.60
2018-12-10T14:45:06.460Z,39.60
2018-12-10T14:47:32.460Z,39.50
2018-12-10T14:49:58.465Z,39.40
2018-12-10T14:52:24.430Z,39.50
2018-12-10T14:54:50.426Z,39.40
2018-12-10T14:57:16.437Z,39.70
2018-12-10T14:59:42.924Z,39.70
2018-12-10T15:02:08.916Z,39.70
2018-12-10T15:04:34.906Z,39.70
2018-12-10T15:07:00.909Z,39.60
2018-12-10T15:09:26.891Z,39.40
2018-12-10T15:11:52.896Z,39.30
2018-12-10T15:14:18.851Z,39.40
2018-12-10T15:16:44.901Z,39.30
2018-12-10T15:19:10.960Z,39.40
2018-12-10T15:21:36.960Z,39.30
2018-12-10T15:24:02.922Z,39.20
2018-12-10T15:26:28.903Z,39.00
2018-12-10T15:28:54.868Z,39.30
2018-12-10T15:31:20.852Z,38.90
2018-12-10T15:33:46.823Z,39.00
2018-12-10T15:36:12.885Z,39.00
2018-12-10T15:38:38.875Z,39.10
2018-12-10T15:41:04.886Z,39.30
2018-12-10T15:43:30.864Z,39.90
2018-12-10T15:45:56.831Z,39.40
2018-12-10T15:48:22.811Z,39.40
2018-12-10T15:50:48.783Z,39.40
2018-12-10T15:53:17.670Z,39.30
2018-12-10T15:55:43.634Z,39.30
2018-12-10T15:58:09.610Z,39.30
2018-12-10T16:00:35.606Z,39.10
2018-12-10T16:03:01.667Z,39.10
2018-12-10T16:05:27.620Z,39.00
2018-12-10T16:07:53.622Z,39.00
2018-12-10T16:10:19.603Z,38.80
2018-12-10T16:12:45.591Z,38.80
2018-12-10T16:15:11.584Z,38.60
2018-12-10T16:17:37.586Z,38.20
2018-12-10T16:20:03.544Z,37.70
2018-12-10T16:22:29.578Z,37.60
2018-12-10T16:24:55.627Z,37.40
2018-12-10T16:27:22.240Z,37.30
2018-12-10T16:29:48.240Z,37.30
2018-12-10T16:32:14.233Z,37.60
2018-12-10T16:34:40.214Z,37.70
2018-12-10T16:37:06.210Z,37.80
2018-12-10T16:39:32.206Z,38.20
2018-12-10T16:41:58.192Z,38.40
2018-12-10T16:44:24.187Z,38.60
2018-12-10T16:46:50.184Z,38.80
2018-12-10T16:49:16.154Z,39.70
2018-12-10T16:51:42.160Z,39.20
2018-12-10T16:54:08.180Z,39.20
2018-12-10T16:56:34.158Z,39.30
2018-12-10T16:59:00.150Z,39.70
2018-12-10T17:01:26.380Z,39.90
2018-12-10T17:03:52.415Z,40.60
2018-12-10T17:06:18.571Z,40.90
2018-12-10T17:08:44.535Z,40.90
2018-12-10T17:11:10.821Z,41.30
2018-12-10T17:13:37.256Z,41.50
2018-12-10T17:16:03.602Z,42.10
2018-12-10T17:18:30.119Z,41.80
2018-12-10T17:20:56.535Z,41.80
2018-12-10T17:23:22.693Z,42.30
2018-12-10T17:25:48.822Z,42.60
2018-12-10T17:28:15.236Z,42.40
2018-12-10T17:30:41.274Z,42.50
2018-12-10T17:33:07.249Z,42.60
2018-12-10T17:35:33.244Z,42.60
2018-12-10T17:37:59.255Z,42.60
2018-12-10T17:40:25.260Z,42.20
2018-12-10T17:42:51.249Z,42.60
2018-12-10T17:45:17.251Z,42.60
2018-12-10T17:47:43.244Z,42.60
2018-12-10T17:50:09.238Z,42.60
2018-12-10T17:52:35.222Z,42.60
2018-12-10T17:55:01.236Z,42.60
2018-12-10T17:57:27.239Z,42.60
2018-12-10T17:59:53.263Z,42.60
2018-12-10T18:02:19.250Z,42.50
2018-12-10T18:04:45.207Z,42.60
2018-12-10T18:07:11.214Z,42.60
2018-12-10T18:09:37.832Z,42.50
2018-12-10T18:12:03.841Z,42.60
2018-12-10T18:14:29.801Z,42.60
2018-12-10T18:16:55.766Z,42.50
2018-12-10T18:19:21.743Z,42.60
2018-12-10T18:21:47.991Z,42.60
2018-12-10T18:24:14.148Z,42.60
2018-12-10T18:26:40.183Z,42.60
2018-12-10T18:29:06.168Z,42.60
2018-12-10T18:31:32.167Z,42.50
2018-12-10T18:33:58.371Z,42.50
2018-12-10T18:36:24.345Z,42.60
2018-12-10T18:38:50.334Z,42.70
2018-12-10T18:41:16.355Z,42.60
2018-12-10T18:43:42.323Z,43.50
2018-12-10T18:46:08.307Z,42.80
2018-12-10T18:48:34.322Z,42.90
2018-12-10T18:51:00.315Z,42.90
2018-12-10T18:53:26.305Z,43.60
2018-12-10T18:55:52.271Z,43.00
2018-12-10T18:58:18.287Z,43.10
2018-12-10T19:00:44.289Z,43.20
2018-12-10T19:03:10.252Z,43.10
2018-12-10T19:05:36.246Z,43.10
2018-12-10T19:08:02.212Z,43.10
2018-12-10T19:10:28.343Z,43.10
2018-12-10T19:12:54.468Z,43.20
2018-12-10T19:15:20.475Z,43.20
2018-12-10T19:17:46.484Z,43.20
2018-12-10T19:20:13.794Z,43.20
2018-12-10T19:22:40.002Z,42.90
2018-12-10T19:25:06.010Z,43.10
2018-12-10T19:27:31.967Z,43.00
2018-12-10T19:29:57.959Z,43.00
2018-12-10T19:32:23.949Z,43.00
2018-12-10T19:34:49.976Z,43.00
2018-12-10T19:37:16.002Z,43.00
2018-12-10T19:39:41.989Z,42.90
2018-12-10T19:42:07.965Z,42.80
2018-12-10T19:44:33.923Z,42.80
2018-12-10T19:46:59.930Z,42.50
2018-12-10T19:49:26.078Z,42.80
2018-12-10T19:51:52.099Z,42.90
2018-12-10T19:54:18.122Z,42.90
2018-12-10T19:56:44.115Z,42.90
2018-12-10T19:59:10.128Z,42.80
2018-12-10T20:01:36.141Z,42.90
2018-12-10T20:04:02.156Z,42.90
2018-12-10T20:06:30.832Z,42.90
2018-12-10T20:08:56.836Z,42.90
2018-12-10T20:11:22.802Z,42.70
2018-12-10T20:13:48.807Z,42.80
2018-12-10T20:16:14.810Z,42.80
2018-12-10T20:18:40.819Z,42.80
2018-12-10T20:21:06.794Z,43.30
2018-12-10T20:23:33.538Z,42.70
2018-12-10T20:26:00.014Z,42.70
2018-12-10T20:28:26.230Z,42.70
2018-12-10T20:30:52.348Z,42.70
2018-12-10T20:33:18.423Z,42.70
2018-12-10T20:35:44.458Z,42.70
2018-12-10T20:38:10.517Z,42.70
2018-12-10T20:40:36.580Z,42.80
2018-12-10T20:43:02.576Z,42.80
2018-12-10T20:45:28.546Z,42.80
2018-12-10T20:47:54.521Z,42.80
2018-12-10T20:50:20.640Z,42.90
2018-12-10T20:52:46.618Z,42.80
2018-12-10T20:55:12.628Z,43.10
2018-12-10T20:57:41.527Z,42.80
2018-12-10T21:00:06.612Z,42.80
2018-12-10T21:02:32.606Z,42.80
2018-12-10T21:04:58.556Z,42.70
2018-12-10T21:07:24.542Z,42.60
2018-12-10T21:09:50.520Z,42.60
2018-12-10T21:12:16.514Z,42.60
2018-12-10T21:14:42.525Z,42.60
2018-12-10T21:17:08.548Z,42.70
2018-12-10T21:19:34.585Z,42.80
2018-12-10T21:22:00.642Z,42.80
2018-12-10T21:24:26.628Z,42.90
2018-12-10T21:26:52.646Z,42.80
2018-12-10T21:29:18.664Z,42.90
2018-12-10T21:31:44.677Z,42.90
2018-12-10T21:34:10.681Z,42.90
2018-12-10T21:36:36.670Z,42.90
2018-12-10T21:39:03.688Z,43.70
2018-12-10T21:41:29.663Z,43.00
2018-12-10T21:43:55.670Z,43.00
2018-12-10T21:46:21.674Z,43.00
2018-12-10T21:48:47.687Z,43.00
2018-12-10T21:51:13.688Z,43.00
2018-12-10T21:53:39.699Z,43.10
2018-12-10T21:56:05.703Z,43.10
2018-12-10T21:58:31.720Z,43.70
2018-12-10T22:00:57.699Z,43.00
2018-12-10T22:03:23.734Z,43.00
2018-12-10T22:05:49.721Z,43.00
2018-12-10T22:08:15.712Z,43.00
2018-12-10T22:10:41.705Z,42.90
2018-12-10T22:13:07.686Z,43.00
2018-12-10T22:15:33.693Z,43.00
2018-12-10T22:17:59.669Z,43.00
2018-12-10T22:20:25.684Z,42.90
2018-12-10T22:22:51.645Z,42.90
2018-12-10T22:25:17.639Z,42.90
2018-12-10T22:27:43.621Z,42.90
2018-12-10T22:30:09.587Z,42.90
2018-12-10T22:32:35.577Z,43.00
2018-12-10T22:35:01.581Z,43.00
2018-12-10T22:37:27.604Z,42.80
2018-12-10T22:39:53.582Z,42.90
2018-12-10T22:42:19.605Z,43.00
2018-12-10T22:44:45.583Z,43.00
2018-12-10T22:47:11.553Z,42.90
2018-12-10T22:49:37.540Z,42.90
2018-12-10T22:52:03.523Z,42.70
2018-12-10T22:54:29.549Z,43.00
2018-12-10T22:56:55.570Z,43.00
2018-12-10T22:59:21.569Z,43.00
2018-12-10T23:01:47.536Z,43.00
2018-12-10T23:04:13.522Z,43.00
2018-12-10T23:06:39.493Z,43.00
2018-12-10T23:09:05.456Z,43.00
2018-12-10T23:11:32.490Z,43.00
2018-12-10T23:13:58.491Z,43.00
2018-12-10T23:16:24.466Z,43.10
2018-12-10T23:18:50.449Z,43.60
2018-12-10T23:21:16.437Z,43.00
2018-12-10T23:23:42.425Z,43.00
2018-12-10T23:26:08.418Z,43.10
2018-12-10T23:28:34.420Z,43.10
2018-12-10T23:31:00.404Z,43.00
2018-12-10T23:33:26.383Z,43.10
2018-12-10T23:35:52.381Z,43.10
2018-12-10T23:38:18.356Z,43.10
2018-12-10T23:40:44.349Z,43.10
2018-12-10T23:43:16.348Z,43.00
2018-12-10T23:45:42.324Z,43.00
2018-12-10T23:48:08.302Z,43.00
2018-12-10T23:50:34.287Z,43.10
2018-12-10T23:53:00.250Z,43.10
2018-12-10T23:55:26.258Z,43.20
2018-12-10T23:57:52.224Z,43.10
